Time;durP1;ratioP1;P1;durP2;ratioP2;P2;SDS_P1;SDS_P2;PMS_P1;PMS_P2;Temp;Humidity;BMP_temperature;BMP_pressure;BME280_temperature;BME280_humidity;BME280_pressure;Samples;Min_cycle;Max_cycle;Signal;HPM_P1;HPM_P2
2022/05/21 00:00:33;;;;;;;10.05;9.75;;;17.50;99.90;;;;;;5164479;27;20234;-90
2022/05/21 00:03:01;;;;;;;10.27;9.98;;;17.50;99.90;;;;;;5164938;27;20726;-91
2022/05/21 00:05:32;;;;;;;10.23;9.93;;;17.40;99.90;;;;;;5164526;27;20238;-92
2022/05/21 00:08:09;;;;;;;10.00;9.70;;;17.40;99.90;;;;;;5163906;27;20318;-90
2022/05/21 00:10:40;;;;;;;10.00;9.70;;;17.40;99.90;;;;;;5164564;27;20238;-90
2022/05/21 00:13:08;;;;;;;10.10;9.80;;;17.40;99.90;;;;;;5164218;27;20326;-90
2022/05/21 00:15:38;;;;;;;10.18;9.88;;;17.40;99.90;;;;;;5164290;27;20226;-90
2022/05/21 00:18:07;;;;;;;10.30;10.00;;;17.40;99.90;;;;;;5163097;27;20219;-89
2022/05/21 00:20:57;;;;;;;10.10;9.80;;;17.40;99.90;;;;;;5164613;27;20297;-89
2022/05/21 00:23:32;;;;;;;10.10;9.80;;;17.40;99.90;;;;;;5125773;27;20232;-89
2022/05/21 00:26:03;;;;;;;9.98;9.68;;;17.40;99.90;;;;;;5122933;27;20221;-90
2022/05/21 00:28:34;;;;;;;10.40;10.10;;;17.40;99.90;;;;;;5122984;27;20251;-90
2022/05/21 00:33:47;;;;;;;10.20;9.90;;;17.40;99.90;;;;;;5123280;27;20724;-91
2022/05/21 00:36:19;;;;;;;10.15;9.85;;;17.40;99.90;;;;;;5122455;27;20255;-90
2022/05/21 00:39:07;;;;;;;10.30;10.00;;;17.30;99.90;;;;;;5122510;28;20252;-89
2022/05/21 00:41:43;;;;;;;9.95;9.65;;;17.30;99.90;;;;;;5123028;28;20286;-89
2022/05/21 00:47:02;;;;;;;10.20;9.90;;;17.30;99.90;;;;;;5122525;27;20303;-90
2022/05/21 00:49:41;;;;;;;10.07;9.77;;;17.20;99.90;;;;;;5122711;28;20245;-90
2022/05/21 00:52:18;;;;;;;10.20;9.90;;;17.20;99.90;;;;;;5122585;28;20224;-90
2022/05/21 00:54:55;;;;;;;10.30;10.00;;;17.20;99.90;;;;;;5122420;28;20229;-90
2022/05/21 00:57:34;;;;;;;10.40;10.10;;;17.20;99.90;;;;;;5122825;28;20232;-90
2022/05/21 01:00:10;;;;;;;10.30;10.00;;;17.10;99.90;;;;;;5122384;28;20308;-91
2022/05/21 01:02:58;;;;;;;10.48;10.18;;;17.00;99.90;;;;;;5122592;28;20248;-89
2022/05/21 01:05:29;;;;;;;10.20;9.90;;;16.90;99.90;;;;;;5124376;28;20237;-87
2022/05/21 01:08:04;;;;;;;10.45;10.15;;;16.80;99.90;;;;;;5131479;28;20328;-88
2022/05/21 01:10:42;;;;;;;10.25;9.95;;;16.70;99.90;;;;;;5130800;28;20227;-87
2022/05/21 01:16:00;;;;;;;10.20;9.90;;;16.50;99.90;;;;;;5142982;27;20201;-86
2022/05/21 01:18:30;;;;;;;10.45;10.15;;;16.40;99.90;;;;;;5141942;27;20330;-87
2022/05/21 01:21:00;;;;;;;10.40;10.10;;;16.30;99.90;;;;;;5138053;28;20213;-87
2022/05/21 01:23:39;;;;;;;10.38;10.07;;;16.20;99.90;;;;;;5141643;27;20225;-87
2022/05/21 01:26:16;;;;;;;10.73;10.43;;;16.20;99.90;;;;;;5140908;27;20224;-86
2022/05/21 01:28:46;;;;;;;10.52;10.23;;;16.00;99.90;;;;;;5140096;28;20224;-87
2022/05/21 01:31:15;;;;;;;10.40;10.10;;;15.90;99.90;;;;;;5140856;28;20209;-87
2022/05/21 01:33:45;;;;;;;10.27;9.98;;;15.80;99.90;;;;;;5140279;27;20229;-88
2022/05/21 01:36:15;;;;;;;10.25;9.95;;;15.70;99.90;;;;;;5139573;27;20213;-87
2022/05/21 01:38:53;;;;;;;10.30;10.00;;;15.60;99.90;;;;;;5139640;27;20255;-87
2022/05/21 01:41:21;;;;;;;10.30;10.00;;;15.50;99.90;;;;;;5140115;28;20213;-87
2022/05/21 01:46:39;;;;;;;10.40;10.10;;;15.40;99.90;;;;;;5128261;27;20281;-87
2022/05/21 01:49:07;;;;;;;10.30;10.00;;;15.30;99.90;;;;;;5136592;28;20233;-87
2022/05/21 01:51:38;;;;;;;10.38;10.07;;;15.30;99.90;;;;;;5136158;28;20225;-88
2022/05/21 01:54:09;;;;;;;10.25;9.95;;;15.20;99.90;;;;;;5139030;28;20225;-88
2022/05/21 01:56:37;;;;;;;10.32;10.02;;;15.20;99.90;;;;;;5139307;27;20225;-88
2022/05/21 01:59:06;;;;;;;10.43;10.13;;;15.20;99.90;;;;;;5136767;28;20231;-88
2022/05/21 02:01:34;;;;;;;10.27;9.98;;;15.10;99.90;;;;;;5136957;28;20217;-88
2022/05/21 02:04:04;;;;;;;10.27;9.98;;;15.10;99.90;;;;;;5131926;28;20232;-88
2022/05/21 02:06:33;;;;;;;10.35;10.05;;;15.10;99.90;;;;;;5130241;28;20224;-88
2022/05/21 02:09:03;;;;;;;10.25;9.95;;;14.90;99.90;;;;;;5122335;27;20229;-87
2022/05/21 02:11:43;;;;;;;10.25;9.95;;;14.80;99.90;;;;;;5122445;28;20248;-88
2022/05/21 02:14:12;;;;;;;10.25;9.95;;;14.80;99.90;;;;;;5125648;28;20232;-88
2022/05/21 02:16:40;;;;;;;10.13;9.82;;;14.70;99.90;;;;;;5130011;28;20225;-87
2022/05/21 02:19:10;;;;;;;10.60;10.30;;;14.70;99.90;;;;;;5121615;28;20235;-87
2022/05/21 02:21:41;;;;;;;10.23;9.93;;;14.60;99.90;;;;;;5121740;27;20213;-88
2022/05/21 02:24:10;;;;;;;10.30;10.00;;;14.50;99.90;;;;;;5122454;28;20281;-87
2022/05/21 02:26:41;;;;;;;10.50;10.20;;;14.40;99.90;;;;;;5120959;28;20233;-88
2022/05/21 02:29:09;;;;;;;10.17;9.87;;;14.50;99.90;;;;;;5120733;28;20240;-87
2022/05/21 02:31:37;;;;;;;9.95;9.65;;;14.40;99.90;;;;;;5121183;28;20233;-88
2022/05/21 02:34:06;;;;;;;10.20;9.90;;;14.40;99.90;;;;;;5120538;28;20229;-88
2022/05/21 02:39:33;;;;;;;10.10;9.80;;;14.40;99.90;;;;;;5121084;28;20228;-87
2022/05/21 02:42:43;;;;;;;10.35;10.05;;;14.40;99.90;;;;;;5123451;28;20231;-87
2022/05/21 02:44:57;;;;;;;10.25;9.95;;;14.30;99.90;;;;;;5120491;28;20240;-87
2022/05/21 02:47:26;;;;;;;10.38;10.07;;;14.20;99.90;;;;;;5120377;27;20236;-87
2022/05/21 02:49:55;;;;;;;10.37;10.07;;;14.20;99.90;;;;;;5120223;28;20221;-87
2022/05/21 02:52:25;;;;;;;10.13;9.82;;;14.20;99.90;;;;;;5120743;28;20225;-87
2022/05/21 02:54:54;;;;;;;10.20;9.90;;;14.20;99.90;;;;;;5119684;28;20279;-87
2022/05/21 02:57:33;;;;;;;10.40;10.10;;;14.10;99.90;;;;;;5119904;28;20225;-87
2022/05/21 03:00:02;;;;;;;10.48;10.18;;;14.10;99.90;;;;;;5120675;27;20259;-86
2022/05/21 03:02:31;;;;;;;10.40;10.10;;;14.10;99.90;;;;;;5124620;28;20231;-88
2022/05/21 03:05:02;;;;;;;10.27;9.97;;;14.10;99.90;;;;;;5124379;27;20316;-87
2022/05/21 03:07:30;;;;;;;10.05;9.75;;;14.00;99.90;;;;;;5125030;28;20229;-87
2022/05/21 03:12:48;;;;;;;10.57;10.27;;;14.00;99.90;;;;;;5125330;28;20209;-87
2022/05/21 03:15:17;;;;;;;10.23;9.93;;;13.90;99.90;;;;;;5126128;28;20225;-87
2022/05/21 03:17:47;;;;;;;10.30;10.00;;;13.80;99.90;;;;;;5149207;27;20238;-87
2022/05/21 03:20:17;;;;;;;10.30;10.00;;;13.80;99.90;;;;;;5158179;27;20220;-88
2022/05/21 03:22:46;;;;;;;10.40;10.10;;;13.70;99.90;;;;;;5173478;27;20233;-87
2022/05/21 03:25:15;;;;;;;10.00;9.70;;;13.60;99.90;;;;;;5180489;27;20227;-87
2022/05/21 03:27:53;;;;;;;10.20;9.90;;;13.50;99.90;;;;;;5184511;27;20231;-87
2022/05/21 03:30:25;;;;;;;10.20;9.90;;;13.50;99.90;;;;;;5168648;27;20280;-88
2022/05/21 03:32:53;;;;;;;10.20;9.90;;;13.50;99.90;;;;;;5167851;27;20215;-87
2022/05/21 03:35:22;;;;;;;10.30;10.00;;;13.50;99.90;;;;;;5167157;27;20281;-87
2022/05/21 03:37:52;;;;;;;10.30;10.00;;;13.50;99.90;;;;;;5165885;27;20246;-86
2022/05/21 03:40:30;;;;;;;10.23;9.93;;;13.50;99.90;;;;;;5166119;27;20227;-86
2022/05/21 03:43:09;;;;;;;10.40;10.10;;;13.50;99.90;;;;;;5165826;27;20304;-86
2022/05/21 03:45:37;;;;;;;10.33;10.03;;;13.50;99.90;;;;;;5165177;27;20224;-86
2022/05/21 03:48:07;;;;;;;10.37;10.07;;;13.40;99.90;;;;;;5155541;27;20240;-86
2022/05/21 03:50:36;;;;;;;10.40;10.10;;;13.40;99.90;;;;;;5144705;27;20220;-87
2022/05/21 03:53:06;;;;;;;10.37;10.07;;;13.30;99.90;;;;;;5144556;27;20224;-87
2022/05/21 03:55:35;;;;;;;10.70;10.40;;;13.20;99.90;;;;;;5144129;27;20247;-86
2022/05/21 03:58:13;;;;;;;10.30;10.00;;;13.20;99.90;;;;;;5143957;27;20236;-85
2022/05/21 04:00:43;;;;;;;10.43;10.13;;;13.10;99.90;;;;;;5143856;27;20216;-85
2022/05/21 04:03:13;;;;;;;10.23;9.93;;;13.10;99.90;;;;;;5143967;27;20266;-85
2022/05/21 04:05:42;;;;;;;10.17;9.87;;;13.10;99.90;;;;;;5152618;27;20258;-86
2022/05/21 04:08:12;;;;;;;10.67;10.37;;;13.00;99.90;;;;;;5160652;27;20283;-86
2022/05/21 04:10:41;;;;;;;10.50;10.20;;;13.00;99.90;;;;;;5151911;27;20216;-85
2022/05/21 04:13:13;;;;;;;10.60;10.30;;;13.00;99.90;;;;;;5148607;27;20227;-86
2022/05/21 04:15:41;;;;;;;10.17;9.87;;;13.10;99.90;;;;;;5149167;27;20232;-85
2022/05/21 04:18:09;;;;;;;10.47;10.17;;;13.10;99.90;;;;;;5153603;27;20236;-86
2022/05/21 04:20:38;;;;;;;10.50;10.20;;;13.10;99.90;;;;;;5159477;27;20250;-86
2022/05/21 04:23:07;;;;;;;10.40;10.10;;;13.10;99.90;;;;;;5157863;27;20224;-86
2022/05/21 04:25:38;;;;;;;10.40;10.10;;;13.10;99.90;;;;;;5157584;27;20224;-87
2022/05/21 04:28:07;;;;;;;10.13;9.83;;;13.10;99.90;;;;;;5159471;27;20262;-86
2022/05/21 04:30:45;;;;;;;10.60;10.30;;;13.10;99.90;;;;;;5159147;27;20224;-86
2022/05/21 04:33:14;;;;;;;10.50;10.20;;;13.10;99.90;;;;;;5159134;27;20204;-86
2022/05/21 04:38:31;;;;;;;10.20;9.90;;;13.20;99.90;;;;;;5159444;27;20279;-86
2022/05/21 04:41:01;;;;;;;10.03;9.73;;;13.20;99.90;;;;;;5158945;27;20266;-85
2022/05/21 04:43:30;;;;;;;10.20;9.90;;;13.20;99.90;;;;;;5161788;27;20207;-87
2022/05/21 04:46:09;;;;;;;10.40;10.10;;;13.30;99.90;;;;;;5159573;27;20220;-86
2022/05/21 04:48:38;;;;;;;10.10;9.80;;;13.30;99.90;;;;;;5157606;27;20235;-86
2022/05/21 04:51:07;;;;;;;10.30;10.00;;;13.40;99.90;;;;;;5157027;27;20216;-86
2022/05/21 04:53:37;;;;;;;9.90;9.60;;;13.40;99.90;;;;;;5154616;27;20224;-88
2022/05/21 04:56:06;;;;;;;10.40;10.10;;;13.40;99.90;;;;;;5143897;27;20224;-86
2022/05/21 04:58:36;;;;;;;10.23;9.93;;;13.40;99.90;;;;;;5144731;27;20239;-86
2022/05/21 05:01:14;;;;;;;10.17;9.87;;;13.50;99.90;;;;;;5145428;27;20257;-86
2022/05/21 05:03:43;;;;;;;10.07;9.77;;;13.50;99.90;;;;;;5144576;27;20216;-86
2022/05/21 05:06:13;;;;;;;10.30;10.00;;;13.60;99.90;;;;;;5144436;27;20396;-82
2022/05/21 05:09:07;;;;;;;9.90;9.60;;;13.70;99.90;;;;;;5149273;27;20236;-83
2022/05/21 05:11:40;;;;;;;9.93;9.63;;;13.80;99.90;;;;;;5143126;27;20220;-83
2022/05/21 05:14:08;;;;;;;9.80;9.50;;;13.90;99.90;;;;;;5142055;27;20239;-84
2022/05/21 05:16:40;;;;;;;9.93;9.63;;;14.00;99.90;;;;;;5141851;27;20232;-84
2022/05/21 05:19:09;;;;;;;9.85;9.55;;;14.10;99.90;;;;;;5142109;27;20231;-84
2022/05/21 05:21:44;;;;;;;10.07;9.77;;;14.20;99.90;;;;;;5142488;27;20262;-84
2022/05/21 05:24:14;;;;;;;10.00;9.70;;;14.20;99.90;;;;;;5140642;27;20227;-83
2022/05/21 05:26:47;;;;;;;9.98;9.68;;;14.30;99.90;;;;;;5142693;27;20228;-83
2022/05/21 05:29:20;;;;;;;9.68;9.38;;;14.40;99.90;;;;;;5144807;27;20240;-84
2022/05/21 05:31:51;;;;;;;9.75;9.45;;;14.50;99.90;;;;;;5141560;27;20231;-84
2022/05/21 05:34:21;;;;;;;9.82;9.52;;;14.50;99.90;;;;;;5141546;27;20220;-84
2022/05/21 05:36:51;;;;;;;9.93;9.63;;;14.50;99.90;;;;;;5142041;27;20244;-83
2022/05/21 05:39:25;;;;;;;9.77;9.48;;;14.60;99.90;;;;;;5146838;27;20242;-83
2022/05/21 05:41:54;;;;;;;9.80;9.50;;;14.70;99.90;;;;;;5150696;27;20251;-83
2022/05/21 05:44:22;;;;;;;9.98;9.68;;;14.70;99.90;;;;;;5149681;27;20224;-83
2022/05/21 05:46:52;;;;;;;9.68;9.38;;;14.80;99.90;;;;;;5146643;27;20339;-84
2022/05/21 05:49:24;;;;;;;10.05;9.75;;;14.80;99.90;;;;;;5174265;22;20230;-82
2022/05/21 05:51:52;;;;;;;9.65;9.35;;;14.70;99.90;;;;;;5163185;27;20231;-82
2022/05/21 05:54:20;;;;;;;9.80;9.50;;;14.60;99.90;;;;;;5162484;27;20236;-80
2022/05/21 05:56:48;;;;;;;9.40;9.10;;;14.70;99.90;;;;;;5163173;27;20258;-80
2022/05/21 06:04:52;;;;;;;9.57;9.27;;;14.80;99.90;;;;;;5141444;27;20216;-80
2022/05/21 06:07:20;;;;;;;9.52;9.23;;;14.70;99.90;;;;;;5141895;27;20232;-80
2022/05/21 06:09:49;;;;;;;9.65;9.35;;;14.90;99.90;;;;;;5142201;27;20261;-81
2022/05/21 06:12:19;;;;;;;9.52;9.23;;;14.80;99.90;;;;;;5141856;27;20281;-81
2022/05/21 06:14:48;;;;;;;9.80;9.50;;;14.90;99.90;;;;;;5141838;27;20232;-79
2022/05/21 06:17:26;;;;;;;9.90;9.60;;;14.90;99.90;;;;;;5141604;27;20252;-79
2022/05/21 06:19:57;;;;;;;9.73;9.43;;;15.10;99.90;;;;;;5141601;27;20239;-80
2022/05/21 06:22:26;;;;;;;10.00;9.70;;;15.10;99.90;;;;;;5142543;27;20224;-81
2022/05/21 06:24:55;;;;;;;9.50;9.20;;;15.00;99.90;;;;;;5140859;27;20238;-79
2022/05/21 06:27:24;;;;;;;9.70;9.40;;;15.10;99.90;;;;;;5141239;27;20287;-80
2022/05/21 06:29:56;;;;;;;9.70;9.40;;;15.20;99.90;;;;;;5141682;27;20232;-81
2022/05/21 06:32:33;;;;;;;9.48;9.18;;;15.30;99.90;;;;;;5146678;27;20276;-84
2022/05/21 06:35:23;;;;;;;9.70;9.40;;;15.30;99.90;;;;;;5146989;27;20211;-83
2022/05/21 06:38:00;;;;;;;9.90;9.60;;;15.10;99.90;;;;;;5153242;27;20242;-81
2022/05/21 06:40:28;;;;;;;10.00;9.70;;;15.30;99.90;;;;;;5154771;27;20235;-81
2022/05/21 06:43:00;;;;;;;9.80;9.50;;;15.40;99.90;;;;;;5149014;27;20224;-82
2022/05/21 06:45:36;;;;;;;10.00;9.70;;;15.50;99.90;;;;;;5147832;27;20341;-82
2022/05/21 06:48:12;;;;;;;9.65;9.35;;;15.50;99.90;;;;;;5146299;27;20228;-81
2022/05/21 06:50:42;;;;;;;10.20;9.90;;;15.60;99.90;;;;;;5146397;27;20250;-80
2022/05/21 06:53:13;;;;;;;9.90;9.60;;;15.70;99.90;;;;;;5147818;27;20228;-82
2022/05/21 06:55:41;;;;;;;9.75;9.45;;;15.80;99.90;;;;;;5148026;27;20246;-82
2022/05/21 06:58:11;;;;;;;10.02;9.73;;;15.80;99.90;;;;;;5148442;27;20247;-81
2022/05/21 07:00:40;;;;;;;10.20;9.90;;;16.00;99.90;;;;;;5145313;27;20252;-81
2022/05/21 07:08:45;;;;;;;10.00;9.70;;;16.30;99.90;;;;;;5123644;27;20229;-81
2022/05/21 07:11:15;;;;;;;10.30;10.00;;;16.40;99.90;;;;;;5134827;28;20220;-81
2022/05/21 07:13:44;;;;;;;10.40;10.10;;;16.40;99.90;;;;;;5142349;27;20228;-80
2022/05/21 07:16:13;;;;;;;10.23;9.93;;;16.30;99.90;;;;;;5156808;27;20212;-79
2022/05/21 07:18:53;;;;;;;10.20;9.90;;;16.50;99.90;;;;;;5163767;27;20208;-80
2022/05/21 07:21:23;;;;;;;10.25;9.95;;;16.80;99.90;;;;;;5164918;27;20220;-81
2022/05/21 07:23:51;;;;;;;10.23;9.93;;;16.70;99.90;;;;;;5154370;27;20237;-79
2022/05/21 07:26:20;;;;;;;10.30;10.00;;;16.80;99.90;;;;;;5163099;27;20207;-79
2022/05/21 07:28:49;;;;;;;10.23;9.93;;;17.00;99.90;;;;;;5164294;27;20254;-80
2022/05/21 07:31:19;;;;;;;10.38;10.07;;;17.00;99.90;;;;;;5157589;27;20267;-80
2022/05/21 07:33:59;;;;;;;10.20;9.90;;;17.00;99.90;;;;;;5162291;27;20250;-79
2022/05/21 07:36:28;;;;;;;9.98;9.68;;;16.80;99.90;;;;;;5151638;27;20226;-79
2022/05/21 07:38:56;;;;;;;10.00;9.70;;;16.80;99.90;;;;;;5159819;27;20228;-81
2022/05/21 07:41:25;;;;;;;9.80;9.50;;;17.00;99.90;;;;;;5140659;27;20225;-80
2022/05/21 07:43:54;;;;;;;10.20;9.90;;;17.10;99.90;;;;;;5126161;28;20224;-82
2022/05/21 07:46:24;;;;;;;10.45;10.15;;;17.10;99.90;;;;;;5142892;27;20277;-82
2022/05/21 07:48:56;;;;;;;10.13;9.82;;;17.20;99.90;;;;;;5147618;27;20245;-82
2022/05/21 07:51:24;;;;;;;9.80;9.50;;;17.10;99.90;;;;;;5147986;27;20220;-81
2022/05/21 07:53:53;;;;;;;10.38;10.07;;;17.00;99.90;;;;;;5145703;27;20220;-80
2022/05/21 07:56:22;;;;;;;10.18;9.88;;;16.90;99.90;;;;;;5144771;27;20254;-80
2022/05/21 07:58:53;;;;;;;10.20;9.90;;;16.80;99.90;;;;;;5145014;27;20228;-82
2022/05/21 08:01:20;;;;;;;10.27;9.98;;;16.80;99.90;;;;;;5144347;27;20229;-80
2022/05/21 08:03:50;;;;;;;9.88;9.57;;;16.90;99.90;;;;;;5143364;27;20694;-81
2022/05/21 08:06:25;;;;;;;9.70;9.40;;;17.00;99.90;;;;;;5145303;27;20224;-84
2022/05/21 08:08:58;;;;;;;10.30;10.00;;;16.90;99.90;;;;;;5138625;27;20300;-82
2022/05/21 08:11:28;;;;;;;10.18;9.88;;;16.90;99.90;;;;;;5143872;27;20228;-81
2022/05/21 08:13:57;;;;;;;10.05;9.75;;;17.00;99.90;;;;;;5142566;27;20248;-82
2022/05/21 08:16:28;;;;;;;10.02;9.73;;;17.10;99.90;;;;;;5127263;27;20225;-83
2022/05/21 08:18:57;;;;;;;10.15;9.85;;;16.80;99.90;;;;;;5143723;27;20235;-82
2022/05/21 08:21:28;;;;;;;9.93;9.63;;;16.80;99.90;;;;;;5128296;28;20324;-82
2022/05/21 08:27:00;;;;;;;10.38;10.07;;;17.10;99.90;;;;;;5124303;28;20225;-82
2022/05/21 08:29:30;;;;;;;10.30;10.00;;;17.10;99.90;;;;;;5125276;27;20236;-83
2022/05/21 08:31:59;;;;;;;10.27;9.98;;;17.30;99.90;;;;;;5127518;28;20233;-82
2022/05/21 08:34:27;;;;;;;10.43;10.13;;;17.50;99.90;;;;;;5132332;27;20281;-83
2022/05/21 08:37:16;;;;;;;10.70;10.40;;;17.60;99.90;;;;;;5145676;27;20242;-84
2022/05/21 08:39:44;;;;;;;10.88;10.57;;;17.60;99.90;;;;;;5143820;27;20274;-83
2022/05/21 08:45:18;;;;;;;10.63;10.32;;;18.10;99.90;;;;;;5142985;27;20784;-82
2022/05/21 08:47:50;;;;;;;10.73;10.43;;;18.50;99.90;;;;;;5143134;27;20220;-83
2022/05/21 08:50:26;;;;;;;10.60;10.30;;;18.90;99.90;;;;;;5143003;27;20308;-84
2022/05/21 08:53:05;;;;;;;10.70;10.40;;;18.60;99.90;;;;;;5148662;27;20227;-83
2022/05/21 08:55:44;;;;;;;10.90;10.60;;;18.20;99.90;;;;;;5146982;27;20265;-84
2022/05/21 08:58:21;;;;;;;10.23;9.93;;;18.30;99.90;;;;;;5144296;27;20224;-83
2022/05/21 09:00:50;;;;;;;10.32;10.02;;;18.70;99.90;;;;;;5144940;27;20239;-84
2022/05/21 09:03:22;;;;;;;10.35;10.05;;;18.40;99.90;;;;;;5145519;27;20235;-83
2022/05/21 09:05:58;;;;;;;10.18;9.88;;;18.30;99.90;;;;;;5144525;27;20216;-84
2022/05/21 09:08:39;;;;;;;10.50;10.20;;;18.50;99.90;;;;;;5143976;27;20216;-82
2022/05/21 09:11:14;;;;;;;10.50;10.20;;;18.80;99.90;;;;;;5143686;27;20965;-83
2022/05/21 09:13:56;;;;;;;10.57;10.27;;;19.10;99.90;;;;;;5143684;27;20234;-83
2022/05/21 09:19:12;;;;;;;10.60;10.30;;;19.00;99.90;;;;;;5143957;27;21008;-83
2022/05/21 09:21:48;;;;;;;10.38;10.07;;;19.10;99.90;;;;;;5144961;27;20232;-83
2022/05/21 09:24:45;;;;;;;10.40;10.10;;;19.30;99.90;;;;;;5144057;27;20230;-82
2022/05/21 09:27:33;;;;;;;10.40;10.10;;;19.50;99.90;;;;;;5145608;27;20228;-83
2022/05/21 09:30:27;;;;;;;10.00;9.70;;;19.60;99.90;;;;;;5144863;27;20236;-83
2022/05/21 09:32:57;;;;;;;10.32;10.02;;;19.40;99.90;;;;;;5146513;27;20232;-84
2022/05/21 09:35:37;;;;;;;10.40;10.10;;;19.10;99.90;;;;;;5159732;27;20236;-82
2022/05/21 09:38:22;;;;;;;10.07;9.77;;;18.50;99.90;;;;;;5154883;27;20234;-82
2022/05/21 09:41:11;;;;;;;10.20;9.90;;;18.70;99.90;;;;;;5146785;27;20212;-83
2022/05/21 09:46:46;;;;;;;10.25;9.95;;;19.30;99.90;;;;;;5117648;27;20223;-83
2022/05/21 09:49:31;;;;;;;10.10;9.80;;;19.10;99.90;;;;;;5147257;27;20240;-83
2022/05/21 09:52:01;;;;;;;10.18;9.88;;;19.10;99.90;;;;;;5144400;27;20216;-82
2022/05/21 09:54:38;;;;;;;10.43;10.13;;;19.20;99.90;;;;;;5144860;27;20224;-83
2022/05/21 09:57:34;;;;;;;10.10;9.80;;;19.20;99.90;;;;;;5144449;27;20288;-83
2022/05/21 10:00:20;;;;;;;10.38;10.07;;;19.10;99.90;;;;;;5143373;27;20232;-83
2022/05/21 10:02:51;;;;;;;10.23;9.93;;;19.20;99.90;;;;;;5145333;27;20215;-83
2022/05/21 10:05:28;;;;;;;10.13;9.82;;;19.50;99.90;;;;;;5143781;27;20220;-83
2022/05/21 10:11:03;;;;;;;10.57;10.27;;;19.30;99.90;;;;;;5146322;27;20213;-84
2022/05/21 10:13:43;;;;;;;10.32;10.02;;;19.50;99.90;;;;;;5145102;27;20284;-83
2022/05/21 10:16:27;;;;;;;10.38;10.07;;;19.50;99.90;;;;;;5143994;27;20228;-82
2022/05/21 10:19:08;;;;;;;10.98;10.68;;;19.70;99.90;;;;;;5144158;27;20228;-82
2022/05/21 10:21:53;;;;;;;10.93;10.63;;;19.90;99.90;;;;;;5145615;27;20224;-83
2022/05/21 10:24:31;;;;;;;10.43;10.13;;;20.20;99.90;;;;;;5144740;27;20228;-82
2022/05/21 10:27:09;;;;;;;10.98;10.68;;;20.50;99.90;;;;;;5144925;27;20231;-83
2022/05/21 10:30:05;;;;;;;10.70;10.40;;;20.70;99.90;;;;;;5145968;27;20228;-82
2022/05/21 10:33:19;;;;;;;11.15;10.85;;;20.60;99.90;;;;;;5145716;27;20232;-83
2022/05/21 10:36:09;;;;;;;11.00;10.70;;;20.80;99.90;;;;;;5143800;27;20283;-82
2022/05/21 10:39:30;;;;;;;10.48;10.18;;;20.40;99.90;;;;;;5144247;27;20239;-82
2022/05/21 10:42:32;;;;;;;10.85;10.55;;;20.20;99.90;;;;;;5109169;27;20232;-83
2022/05/21 10:45:20;;;;;;;10.68;10.38;;;20.20;99.90;;;;;;5144093;27;20232;-84
2022/05/21 10:48:44;;;;;;;10.65;10.35;;;20.50;99.90;;;;;;5144417;27;20224;-83
2022/05/21 10:51:21;;;;;;;10.90;10.60;;;20.90;99.90;;;;;;5121536;27;20254;-83
2022/05/21 10:54:16;;;;;;;10.68;10.38;;;20.90;99.90;;;;;;5143930;27;20292;-83
2022/05/21 10:57:04;;;;;;;10.82;10.52;;;20.90;99.90;;;;;;5144613;27;20289;-83
2022/05/21 11:00:07;;;;;;;10.65;10.35;;;20.50;99.90;;;;;;5145133;27;20240;-83
2022/05/21 11:03:22;;;;;;;10.48;10.18;;;20.60;99.90;;;;;;5134247;27;20226;-82
2022/05/21 11:06:24;;;;;;;10.60;10.30;;;20.30;99.90;;;;;;5145466;27;20273;-82
2022/05/21 11:09:11;;;;;;;11.00;10.70;;;20.10;99.90;;;;;;5148515;27;20253;-81
2022/05/21 11:12:00;;;;;;;10.80;10.50;;;19.90;99.90;;;;;;5127665;28;20225;-84
2022/05/21 11:14:42;;;;;;;10.80;10.50;;;20.00;99.90;;;;;;5122853;28;20239;-79
2022/05/21 11:17:35;;;;;;;10.60;10.30;;;20.20;99.90;;;;;;5122634;27;20225;-79
2022/05/21 11:20:23;;;;;;;10.60;10.30;;;20.40;99.90;;;;;;5133819;27;20234;-81
2022/05/21 11:23:01;;;;;;;10.40;10.10;;;20.70;99.90;;;;;;5136604;27;20289;-80
2022/05/21 11:25:39;;;;;;;10.60;10.30;;;21.10;99.90;;;;;;5136970;27;20224;-81
2022/05/21 11:28:34;;;;;;;10.40;10.10;;;21.40;99.90;;;;;;5145153;27;20271;-81
2022/05/21 11:31:07;;;;;;;10.50;10.20;;;21.50;99.90;;;;;;5145542;27;20275;-80
2022/05/21 11:39:16;;;;;;;10.48;10.18;;;21.90;99.90;;;;;;5145313;27;20281;-80
2022/05/21 11:42:12;;;;;;;10.38;10.07;;;22.00;99.90;;;;;;5145005;27;20275;-80
2022/05/21 11:44:59;;;;;;;10.70;10.40;;;22.10;99.90;;;;;;5146617;27;20228;-81
2022/05/21 11:47:49;;;;;;;10.55;10.25;;;21.70;99.90;;;;;;5145679;27;20236;-80
2022/05/21 11:50:24;;;;;;;10.70;10.40;;;21.40;99.90;;;;;;5168856;22;20264;-82
2022/05/21 11:53:10;;;;;;;10.75;10.45;;;21.30;99.90;;;;;;5142752;27;20273;-81
2022/05/21 11:55:58;;;;;;;11.15;10.85;;;21.90;99.90;;;;;;5146387;27;20286;-81
2022/05/21 11:59:23;;;;;;;11.00;10.70;;;22.60;99.90;;;;;;5133709;27;20232;-80
2022/05/21 12:02:12;;;;;;;11.00;10.70;;;22.90;99.90;;;;;;5152536;27;20293;-82
2022/05/21 12:05:00;;;;;;;11.18;10.88;;;23.10;99.90;;;;;;5154625;27;20220;-81
2022/05/21 12:08:09;;;;;;;10.98;10.68;;;23.20;99.90;;;;;;5152743;27;20220;-82
2022/05/21 12:10:55;;;;;;;11.25;10.95;;;23.30;99.90;;;;;;5155484;27;20258;-81
2022/05/21 12:13:52;;;;;;;11.07;10.77;;;23.70;99.90;;;;;;5148250;27;20226;-82
2022/05/21 12:16:45;;;;;;;11.10;10.80;;;23.40;99.90;;;;;;5160378;27;20232;-81
2022/05/21 12:20:09;;;;;;;10.85;10.55;;;22.70;99.90;;;;;;5160940;27;20214;-82
2022/05/21 12:22:52;;;;;;;10.77;10.48;;;21.80;99.90;;;;;;5162499;27;20235;-82
2022/05/21 12:25:57;;;;;;;10.90;10.60;;;21.40;99.90;;;;;;5161939;27;20267;-80
2022/05/21 12:28:41;;;;;;;10.52;10.23;;;21.00;99.90;;;;;;5161205;27;20271;-80
2022/05/21 12:31:15;;;;;;;10.23;9.93;;;21.70;99.90;;;;;;5159705;27;20246;-81
2022/05/21 12:33:54;;;;;;;10.50;10.20;;;21.10;99.90;;;;;;5161177;27;20321;-81
2022/05/21 12:36:44;;;;;;;10.27;9.98;;;21.20;99.90;;;;;;5161173;27;20251;-82
2022/05/21 12:39:15;;;;;;;10.52;10.23;;;21.80;99.90;;;;;;5159491;27;20228;-82
2022/05/21 12:41:49;;;;;;;10.50;10.20;;;22.10;99.90;;;;;;5151271;27;20262;-80
2022/05/21 12:44:40;;;;;;;10.40;10.10;;;21.80;99.90;;;;;;5144328;27;20216;-81
2022/05/21 12:47:11;;;;;;;10.93;10.63;;;21.60;99.90;;;;;;5143190;27;20228;-81
2022/05/21 12:49:49;;;;;;;11.00;10.70;;;21.20;99.90;;;;;;5142115;27;20289;-82
2022/05/21 12:52:34;;;;;;;10.80;10.50;;;21.40;99.90;;;;;;5140591;27;20216;-80
2022/05/21 12:55:25;;;;;;;10.70;10.40;;;21.60;99.90;;;;;;5142975;27;20412;-81
2022/05/21 12:57:55;;;;;;;10.80;10.50;;;21.60;99.90;;;;;;5142739;27;20240;-81
2022/05/21 13:00:29;;;;;;;10.65;10.35;;;22.00;99.90;;;;;;5141723;27;20228;-81
2022/05/21 13:02:58;;;;;;;10.65;10.35;;;22.10;99.90;;;;;;5142359;27;20236;-81
2022/05/21 13:05:32;;;;;;;10.70;10.40;;;21.90;99.90;;;;;;5141806;27;20296;-80
2022/05/21 13:08:03;;;;;;;10.90;10.60;;;21.70;99.90;;;;;;5141753;27;20227;-80
2022/05/21 13:10:33;;;;;;;10.57;10.27;;;21.70;99.90;;;;;;5141795;27;20239;-82
2022/05/21 13:13:07;;;;;;;10.93;10.63;;;21.30;99.90;;;;;;5142478;27;20231;-80
2022/05/21 13:15:41;;;;;;;10.70;10.40;;;21.30;99.90;;;;;;5142286;27;20220;-81
2022/05/21 13:18:24;;;;;;;11.00;10.70;;;21.90;99.90;;;;;;5141325;27;20239;-81
2022/05/21 13:21:04;;;;;;;10.80;10.50;;;22.10;99.90;;;;;;5142374;27;20225;-81
2022/05/21 13:24:02;;;;;;;11.10;10.80;;;22.10;99.90;;;;;;5142658;27;20274;-82
2022/05/21 13:26:32;;;;;;;10.98;10.68;;;22.00;99.90;;;;;;5141945;27;20228;-82
2022/05/21 13:29:15;;;;;;;11.00;10.70;;;22.30;99.90;;;;;;5141995;27;20224;-82
2022/05/21 13:31:45;;;;;;;10.88;10.57;;;22.50;99.90;;;;;;5141275;27;20300;-82
2022/05/21 13:34:18;;;;;;;10.93;10.63;;;22.80;99.90;;;;;;5138839;27;20289;-83
2022/05/21 13:36:51;;;;;;;11.00;10.70;;;23.10;99.90;;;;;;5140554;27;20285;-82
2022/05/21 13:39:27;;;;;;;10.95;10.65;;;23.30;99.90;;;;;;5141867;27;20235;-83
2022/05/21 13:41:59;;;;;;;10.65;10.35;;;23.00;99.90;;;;;;5142628;27;20224;-81
2022/05/21 13:44:27;;;;;;;10.85;10.55;;;22.80;99.90;;;;;;5135632;27;20220;-82
2022/05/21 13:47:00;;;;;;;10.60;10.30;;;22.90;99.90;;;;;;5141082;27;20327;-83
2022/05/21 13:49:33;;;;;;;10.60;10.30;;;22.80;99.90;;;;;;5121135;28;20306;-82
2022/05/21 13:52:02;;;;;;;10.88;10.57;;;22.90;99.90;;;;;;5121079;27;20228;-82
2022/05/21 13:54:34;;;;;;;10.77;10.48;;;23.20;99.90;;;;;;5122646;27;20224;-80
2022/05/21 13:57:13;;;;;;;10.70;10.40;;;22.80;99.90;;;;;;5141524;27;20315;-79
2022/05/21 13:59:54;;;;;;;10.57;10.27;;;22.40;99.90;;;;;;5157486;27;20261;-79
2022/05/21 14:02:37;;;;;;;10.75;10.45;;;22.30;99.90;;;;;;5160528;27;20223;-79
2022/05/21 14:05:24;;;;;;;10.30;10.00;;;22.20;99.90;;;;;;5153052;27;20216;-81
2022/05/21 14:07:54;;;;;;;10.27;9.98;;;22.60;99.90;;;;;;5148970;27;20273;-80